Terminal Aerodrome Forecast
Issued by NWS

Home | Current Version | Previous Version | Text Only | Print | Product List | Glossary On
Versions: 1 2 3 4 5 6 7 8 9 10 11 12 13 14 15 16 17
000
FTUS41 KBTV 230530
TAFRUT
TAF
KRUT 230530Z 2306/2406 12006KT P6SM FEW200
     FM231600 14009G15KT P6SM BKN070
     FM231900 15013G20KT 5SM -RA BR OVC025
     FM232100 15011G17KT 3SM -RA BR OVC015
     FM240300 20005KT P6SM VCSH BKN015=

USA.gov is the U.S. government's official web portal to all federal, state and local government web resources and services.